Cincinnati, Ohio
Traffic Map
Current Weather Conditions
Cincinnati, Ohio
Broken Clouds
Broken Clouds
12°
Feels Like: 12°
Wind Chill: 12° Ceiling: 7000
Heat Index: 12° Visibility: 10mi
Dew Point: 10° Wind: 0mph
Humidity: 86% Direction: ° ()
Pressure: 29.85in Gusts: 0mph
Raw Report DataKLUK 301253Z 00000KT 10SM BKN070 12/10 A2985 RMK AO2 SLP106 T01220100
Traffic Incident Summary
Active as of:
Severity:
Category:
InformationThere was an issue retrieving the traffic information for this location. Please try a different location or try again shortly.
Advertisements
Track Severe Weather on mobile